Terminal Aerodrome Forecast
Issued by NWS Sioux Falls, SD

Home | Current Version | Previous Version | Graphics & Text | Print | Product List | Glossary On
Versions: 1 2 3 4 5 6 7 8 9 10 11 12 13 14
000
FTUS43 KFSD 280859 AAC
TAFFSD
TAF AMD
KFSD 280859Z 2809/2906 VRB05KT P6SM -TSRA SCT020 OVC060CB
     FM281000 13008KT 6SM BR SCT007 BKN090
      TEMPO 2810/2812 5SM -SHRA BR SCT015 OVC050
     FM281600 29012G20KT P6SM BKN025
     FM282000 29012G20KT P6SM SKC
     FM290100 28008KT P6SM SKC=

USA.gov is the U.S. government's official web portal to all federal, state and local government web resources and services.